Time;durP1;ratioP1;P1;durP2;ratioP2;P2;SDS_P1;SDS_P2;PMS_P1;PMS_P2;Temp;Humidity;BMP_temperature;BMP_pressure;BME280_temperature;BME280_humidity;BME280_pressure;Samples;Min_cycle;Max_cycle;Signal;HPM_P1;HPM_P2
2022/09/24 00:01:56;;;;;;;0.45;0.45;;;17.50;81.20;;;;;;4158643;28;20053;-63
2022/09/24 00:04:39;;;;;;;0.00;0.00;;;17.50;81.50;;;;;;4158971;28;20068;-63
2022/09/24 00:07:20;;;;;;;0.00;0.00;;;17.50;81.30;;;;;;4158186;28;20044;-64
2022/09/24 00:10:01;;;;;;;0.00;0.00;;;17.50;81.40;;;;;;4145257;28;20056;-63
2022/09/24 00:12:43;;;;;;;0.05;0.05;;;17.50;81.30;;;;;;4157549;28;20060;-63
2022/09/24 00:15:24;;;;;;;0.10;0.10;;;17.50;81.30;;;;;;4155718;28;20060;-61
2022/09/24 00:18:06;;;;;;;;;;;17.50;81.20;;;;;;4157369;28;20087;-63
2022/09/24 00:20:49;;;;;;;;;;;17.40;81.20;;;;;;4156651;28;20071;-63
2022/09/24 00:23:29;;;;;;;;;;;17.50;81.20;;;;;;4157980;28;20338;-63
2022/09/24 00:29:11;;;;;;;4.22;1.38;;;17.40;81.40;;;;;;4158485;28;20290;-63
2022/09/24 00:31:53;;;;;;;0.05;0.05;;;17.50;81.60;;;;;;4158918;28;20045;-63
2022/09/24 00:34:34;;;;;;;0.00;0.00;;;17.40;81.70;;;;;;4158508;28;20052;-63
2022/09/24 00:37:18;;;;;;;1.17;0.95;;;17.50;81.80;;;;;;4158402;28;20559;-64
2022/09/24 00:39:58;;;;;;;0.00;0.00;;;17.40;81.70;;;;;;4158748;28;20191;-64
2022/09/24 00:42:39;;;;;;;0.28;0.28;;;17.40;82.60;;;;;;4158864;28;20124;-64
2022/09/24 00:45:20;;;;;;;0.00;0.00;;;17.50;81.90;;;;;;4158581;28;20060;-65
2022/09/24 00:48:01;;;;;;;37.17;1.55;;;17.50;81.90;;;;;;4158528;28;20052;-64
2022/09/24 00:50:42;;;;;;;0.00;0.00;;;17.50;81.90;;;;;;4158248;28;20134;-64
2022/09/24 00:53:27;;;;;;;3.40;1.25;;;17.50;82.00;;;;;;4158471;28;20134;-62
2022/09/24 00:56:11;;;;;;;0.25;0.25;;;17.50;82.90;;;;;;4158309;28;20052;-62
2022/09/24 00:58:55;;;;;;;0.28;0.28;;;17.50;82.10;;;;;;4158069;28;20048;-62
2022/09/24 01:01:35;;;;;;;0.20;0.20;;;17.50;82.10;;;;;;4157918;28;20211;-63
2022/09/24 01:04:20;;;;;;;0.52;0.52;;;17.40;82.10;;;;;;4156714;28;20886;-63
2022/09/24 01:07:01;;;;;;;0.70;0.70;;;17.50;82.40;;;;;;4157631;28;20068;-63
2022/09/24 01:09:43;;;;;;;0.08;0.08;;;17.50;82.40;;;;;;4157937;28;20056;-63
2022/09/24 01:12:32;;;;;;;0.22;0.22;;;17.50;82.40;;;;;;4157854;28;20052;-63
2022/09/24 01:15:23;;;;;;;0.73;0.73;;;17.50;82.50;;;;;;4157638;28;20122;-63
2022/09/24 01:18:09;;;;;;;0.70;0.35;;;17.50;82.50;;;;;;4159060;28;20060;-64
2022/09/24 01:21:08;;;;;;;1.42;1.35;;;17.40;82.40;;;;;;4146974;28;20057;-65
2022/09/24 01:24:18;;;;;;;0.20;0.20;;;17.50;83.30;;;;;;4158447;28;20061;-64
2022/09/24 01:27:06;;;;;;;0.00;0.00;;;17.50;82.50;;;;;;4158391;28;20072;-64
2022/09/24 01:30:01;;;;;;;1.98;1.52;;;17.50;82.70;;;;;;4158546;28;20179;-64
2022/09/24 01:32:48;;;;;;;0.82;0.73;;;17.40;82.70;;;;;;4157173;28;20052;-64
2022/09/24 01:35:35;;;;;;;0.32;0.32;;;17.50;82.70;;;;;;4158880;28;20060;-63
2022/09/24 01:38:19;;;;;;;0.35;0.30;;;17.50;82.80;;;;;;4141255;28;20053;-65
2022/09/24 01:41:03;;;;;;;0.00;0.00;;;17.40;82.80;;;;;;4145381;28;20087;-64
2022/09/24 01:43:45;;;;;;;0.10;0.10;;;17.40;82.90;;;;;;4158560;28;20057;-64
2022/09/24 01:46:27;;;;;;;;;;;17.50;83.00;;;;;;4158908;28;20052;-64
2022/09/24 01:49:08;;;;;;;0.32;0.32;;;17.50;83.00;;;;;;4158488;28;20293;-64
2022/09/24 01:51:52;;;;;;;0.55;0.55;;;17.40;83.00;;;;;;4158774;28;20048;-64
2022/09/24 01:54:37;;;;;;;0.55;0.55;;;17.40;83.10;;;;;;4158524;28;20183;-64
2022/09/24 01:57:21;;;;;;;2.17;0.57;;;17.40;83.10;;;;;;4158097;28;20060;-64
2022/09/24 02:00:08;;;;;;;0.10;0.10;;;17.40;83.10;;;;;;4157619;28;20063;-65
2022/09/24 02:03:00;;;;;;;1.00;1.00;;;17.40;83.10;;;;;;4158440;28;20057;-64
2022/09/24 02:05:48;;;;;;;0.35;0.35;;;17.40;83.20;;;;;;4160732;28;20064;-66
2022/09/24 02:08:33;;;;;;;0.28;0.28;;;17.40;83.30;;;;;;4160601;28;20060;-64
2022/09/24 02:11:17;;;;;;;0.52;0.38;;;17.50;84.20;;;;;;4161079;28;20057;-65
2022/09/24 02:14:03;;;;;;;2.30;2.10;;;17.40;83.20;;;;;;4161265;28;20052;-64
2022/09/24 02:16:46;;;;;;;0.10;0.10;;;17.40;83.20;;;;;;4160921;28;20500;-65
2022/09/24 02:19:31;;;;;;;0.00;0.00;;;17.40;83.30;;;;;;4144705;28;20064;-65
2022/09/24 02:22:14;;;;;;;0.40;0.40;;;17.40;83.30;;;;;;4144975;28;20057;-65
2022/09/24 02:24:57;;;;;;;0.40;0.40;;;17.40;84.20;;;;;;4146045;28;20064;-65
2022/09/24 02:27:38;;;;;;;0.00;0.00;;;17.40;83.40;;;;;;4160240;28;20118;-65
2022/09/24 02:30:19;;;;;;;0.35;0.35;;;17.40;83.30;;;;;;4160846;28;20060;-65
2022/09/24 02:33:00;;;;;;;0.17;0.17;;;17.40;83.40;;;;;;4160638;28;20618;-65
2022/09/24 02:35:42;;;;;;;0.00;0.00;;;17.40;83.40;;;;;;4160937;28;20214;-62
2022/09/24 02:38:23;;;;;;;0.30;0.30;;;17.40;83.40;;;;;;4160524;28;20628;-63
2022/09/24 02:41:07;;;;;;;0.98;0.98;;;17.40;83.50;;;;;;4160792;28;20409;-63
2022/09/24 02:43:47;;;;;;;0.03;0.03;;;17.40;83.50;;;;;;4160722;28;20099;-62
2022/09/24 02:46:28;;;;;;;5.23;2.17;;;17.40;83.50;;;;;;4160207;28;20068;-62
2022/09/24 02:49:09;;;;;;;0.22;0.22;;;17.40;83.60;;;;;;4143731;28;20422;-62
2022/09/24 02:51:52;;;;;;;0.38;0.38;;;17.40;83.70;;;;;;4144488;28;20116;-62
2022/09/24 02:54:33;;;;;;;0.40;0.40;;;17.40;83.60;;;;;;4144543;28;20500;-62
2022/09/24 02:57:14;;;;;;;0.10;0.10;;;17.40;83.60;;;;;;4159980;28;20159;-63
2022/09/24 02:59:55;;;;;;;1.52;0.98;;;17.40;84.50;;;;;;4159103;28;20489;-63
2022/09/24 03:02:36;;;;;;;0.70;0.63;;;17.40;83.70;;;;;;4160390;28;20044;-64
2022/09/24 03:05:17;;;;;;;0.00;0.00;;;17.40;83.70;;;;;;4160067;28;20059;-62
2022/09/24 03:07:59;;;;;;;0.00;0.00;;;17.40;83.80;;;;;;4159355;28;20068;-62
2022/09/24 03:10:40;;;;;;;0.00;0.00;;;17.40;84.00;;;;;;4159923;28;20179;-63
2022/09/24 03:13:21;;;;;;;1.63;1.52;;;17.40;84.00;;;;;;4160226;28;20052;-63
2022/09/24 03:16:02;;;;;;;5.43;3.92;;;17.40;83.90;;;;;;4159895;28;20047;-62
2022/09/24 03:18:44;;;;;;;1.45;0.93;;;17.40;83.90;;;;;;4158256;28;20052;-63
2022/09/24 03:21:24;;;;;;;0.22;0.22;;;17.40;84.00;;;;;;4159819;28;20052;-63
2022/09/24 03:24:06;;;;;;;0.00;0.00;;;17.40;84.00;;;;;;4159746;28;20617;-62
2022/09/24 03:26:47;;;;;;;0.15;0.15;;;17.40;84.10;;;;;;4159504;28;20069;-63
2022/09/24 03:32:26;;;;;;;0.00;0.00;;;17.40;84.10;;;;;;4159717;28;20049;-63
2022/09/24 03:35:09;;;;;;;0.00;0.00;;;17.40;85.00;;;;;;4159388;28;20048;-62
2022/09/24 03:37:50;;;;;;;1.27;1.02;;;17.40;84.10;;;;;;4159743;28;20990;-62
2022/09/24 03:40:32;;;;;;;0.38;0.38;;;17.40;84.20;;;;;;4158671;28;20513;-63
2022/09/24 03:43:13;;;;;;;18.73;1.08;;;17.40;84.30;;;;;;4159956;28;20409;-62
2022/09/24 03:45:54;;;;;;;1.17;1.17;;;17.40;84.20;;;;;;4153473;28;20044;-63
2022/09/24 03:48:36;;;;;;;0.00;0.00;;;17.40;84.10;;;;;;4159267;28;20310;-63
2022/09/24 03:51:19;;;;;;;0.10;0.10;;;17.40;84.20;;;;;;4159593;28;20052;-62
2022/09/24 03:54:00;;;;;;;0.32;0.32;;;17.40;84.30;;;;;;4159668;28;20148;-63
2022/09/24 03:56:42;;;;;;;1.17;1.13;;;17.40;84.30;;;;;;4159166;28;20457;-62
2022/09/24 03:59:23;;;;;;;0.10;0.10;;;17.50;84.40;;;;;;4146973;28;20056;-65
2022/09/24 04:02:04;;;;;;;0.65;0.57;;;17.50;84.30;;;;;;4159563;28;20124;-64
2022/09/24 04:04:45;;;;;;;0.00;0.00;;;17.40;84.20;;;;;;4159375;28;20060;-62
2022/09/24 04:07:26;;;;;;;1.30;1.30;;;17.40;84.20;;;;;;4146479;28;20084;-62
2022/09/24 04:10:08;;;;;;;0.00;0.00;;;17.40;84.30;;;;;;4158618;28;20191;-62
2022/09/24 04:12:51;;;;;;;0.10;0.10;;;17.40;84.30;;;;;;4159457;28;20362;-62
2022/09/24 04:15:32;;;;;;;0.30;0.30;;;17.50;84.40;;;;;;4149104;28;20452;-62
2022/09/24 04:18:13;;;;;;;0.63;0.47;;;17.40;84.30;;;;;;4158912;28;20056;-62
2022/09/24 04:20:58;;;;;;;0.00;0.00;;;17.40;84.30;;;;;;4159042;28;20052;-62
2022/09/24 04:23:39;;;;;;;0.10;0.10;;;17.40;85.30;;;;;;4158981;28;20088;-63
2022/09/24 04:26:20;;;;;;;0.30;0.30;;;17.40;84.40;;;;;;4158921;28;20061;-63
2022/09/24 04:29:03;;;;;;;0.10;0.10;;;17.40;84.50;;;;;;4158629;28;20056;-64
2022/09/24 04:31:45;;;;;;;0.45;0.45;;;17.40;84.60;;;;;;4158901;28;20083;-64
2022/09/24 04:34:26;;;;;;;0.30;0.30;;;17.40;84.60;;;;;;4158567;28;20055;-70
2022/09/24 04:37:08;;;;;;;2.08;0.70;;;17.40;84.50;;;;;;4158460;28;20073;-64
2022/09/24 04:39:49;;;;;;;1.00;0.52;;;17.40;84.60;;;;;;4142565;28;20541;-63
2022/09/24 04:42:30;;;;;;;0.73;0.68;;;17.40;84.60;;;;;;4142519;28;20544;-62
2022/09/24 04:45:14;;;;;;;0.57;0.57;;;17.40;84.50;;;;;;4157008;28;20053;-62
2022/09/24 04:47:56;;;;;;;0.38;0.38;;;17.40;84.60;;;;;;4149004;28;20058;-62
2022/09/24 04:50:38;;;;;;;0.63;0.32;;;17.40;84.60;;;;;;4158723;28;20072;-63
2022/09/24 04:53:24;;;;;;;0.10;0.10;;;17.40;84.60;;;;;;4158368;28;20057;-62
2022/09/24 04:56:10;;;;;;;0.28;0.28;;;17.40;84.60;;;;;;4158682;28;20048;-62
2022/09/24 04:58:52;;;;;;;0.98;0.98;;;17.50;84.60;;;;;;4157291;28;20104;-62
2022/09/24 05:01:34;;;;;;;0.00;0.00;;;17.40;84.60;;;;;;4158384;28;20481;-63
2022/09/24 05:04:17;;;;;;;0.00;0.00;;;17.40;84.60;;;;;;4158586;28;20094;-62
2022/09/24 05:06:58;;;;;;;0.10;0.10;;;17.40;84.70;;;;;;4158280;28;20159;-62
2022/09/24 05:09:39;;;;;;;0.28;0.28;;;17.40;84.60;;;;;;4158600;28;20517;-63
2022/09/24 05:12:20;;;;;;;0.00;0.00;;;17.40;85.00;;;;;;4158166;28;20068;-63
2022/09/24 05:15:01;;;;;;;0.00;0.00;;;17.40;84.70;;;;;;4158426;28;20195;-63
2022/09/24 05:17:44;;;;;;;0.20;0.20;;;17.40;84.70;;;;;;4158672;28;20536;-63
2022/09/24 05:20:25;;;;;;;0.10;0.10;;;17.40;84.70;;;;;;4158595;28;20398;-63
2022/09/24 05:23:06;;;;;;;0.00;0.00;;;17.40;84.70;;;;;;4158113;28;20108;-63
2022/09/24 05:28:45;;;;;;;0.00;0.00;;;17.40;84.80;;;;;;4157092;28;20064;-65
2022/09/24 05:31:26;;;;;;;1.55;0.90;;;17.50;84.90;;;;;;4158323;28;20401;-65
2022/09/24 05:34:09;;;;;;;1.45;0.80;;;17.40;84.80;;;;;;4158601;28;20536;-65
2022/09/24 05:36:50;;;;;;;0.75;0.75;;;17.40;84.80;;;;;;4158348;28;20056;-65
2022/09/24 05:39:31;;;;;;;0.00;0.00;;;17.40;85.00;;;;;;4159072;28;20509;-62
2022/09/24 05:42:13;;;;;;;0.00;0.00;;;17.40;86.00;;;;;;4160084;28;20130;-63
2022/09/24 05:44:55;;;;;;;0.38;0.38;;;17.50;85.60;;;;;;4161162;28;20409;-63
2022/09/24 05:47:35;;;;;;;0.00;0.00;;;17.50;85.60;;;;;;4159978;28;20480;-62
2022/09/24 05:50:18;;;;;;;0.00;0.00;;;17.50;85.60;;;;;;4160339;28;20052;-64
2022/09/24 05:52:59;;;;;;;0.30;0.30;;;17.40;86.30;;;;;;4144884;28;20064;-62
2022/09/24 05:55:39;;;;;;;0.00;0.00;;;17.50;85.70;;;;;;4145278;28;20406;-63
2022/09/24 05:58:21;;;;;;;0.17;0.17;;;17.50;85.70;;;;;;4158476;28;20513;-62
2022/09/24 06:01:02;;;;;;;0.00;0.00;;;17.40;85.70;;;;;;4161122;28;20048;-62
2022/09/24 06:03:42;;;;;;;0.00;0.00;;;17.40;85.70;;;;;;4161056;28;20187;-62
2022/09/24 06:06:25;;;;;;;0.00;0.00;;;17.40;85.90;;;;;;4160027;28;20504;-62
2022/09/24 06:09:08;;;;;;;0.00;0.00;;;17.40;85.90;;;;;;4144890;28;20057;-60
2022/09/24 06:11:52;;;;;;;0.17;0.17;;;17.40;86.10;;;;;;4157212;28;20409;-62
2022/09/24 06:14:33;;;;;;;0.10;0.10;;;17.40;85.90;;;;;;4160151;28;20056;-61
2022/09/24 06:17:14;;;;;;;0.00;0.00;;;17.40;85.80;;;;;;4159454;28;20056;-61
2022/09/24 06:19:56;;;;;;;0.00;0.00;;;17.40;85.90;;;;;;4160232;28;20783;-63
2022/09/24 06:22:39;;;;;;;0.00;0.00;;;17.40;85.90;;;;;;4148278;28;20060;-61
2022/09/24 06:25:19;;;;;;;0.00;0.00;;;17.40;85.90;;;;;;4161232;28;20056;-61
2022/09/24 06:28:03;;;;;;;0.00;0.00;;;17.40;86.00;;;;;;4159833;28;20060;-60
2022/09/24 06:30:43;;;;;;;0.00;0.00;;;17.40;86.00;;;;;;4160575;28;20223;-62
2022/09/24 06:33:24;;;;;;;0.00;0.00;;;17.40;86.00;;;;;;4161032;28;20111;-61
2022/09/24 06:36:06;;;;;;;;;;;17.40;86.10;;;;;;4161172;28;20471;-62
2022/09/24 06:38:52;;;;;;;0.00;0.00;;;17.40;86.80;;;;;;4160517;28;19928;-63
2022/09/24 06:41:33;;;;;;;0.00;0.00;;;17.30;86.70;;;;;;4160827;28;20083;-62
2022/09/24 06:44:14;;;;;;;0.10;0.10;;;17.30;86.90;;;;;;4160953;28;20057;-59
2022/09/24 06:46:55;;;;;;;0.10;0.10;;;17.30;87.10;;;;;;4160407;28;20445;-59
2022/09/24 06:49:37;;;;;;;0.05;0.05;;;17.30;87.50;;;;;;4160956;28;20135;-59
2022/09/24 06:52:17;;;;;;;0.00;0.00;;;17.30;88.80;;;;;;4144106;28;20068;-60
2022/09/24 06:55:00;;;;;;;0.00;0.00;;;17.30;90.30;;;;;;4143714;28;20052;-59
2022/09/24 06:57:41;;;;;;;0.00;0.00;;;17.30;90.90;;;;;;4144085;28;20125;-60
2022/09/24 07:00:22;;;;;;;0.00;0.00;;;17.30;91.00;;;;;;4147569;28;20040;-60
2022/09/24 07:03:03;;;;;;;0.00;0.00;;;17.30;90.60;;;;;;4160623;28;20044;-63
2022/09/24 07:05:44;;;;;;;0.00;0.00;;;17.30;90.70;;;;;;4160308;28;20502;-64
2022/09/24 07:08:25;;;;;;;0.00;0.00;;;17.30;90.10;;;;;;4159883;28;20418;-63
2022/09/24 07:11:07;;;;;;;0.00;0.00;;;17.30;90.00;;;;;;4160285;28;20175;-63
2022/09/24 07:13:48;;;;;;;0.08;0.08;;;17.30;90.00;;;;;;4158432;28;20064;-63
2022/09/24 07:16:29;;;;;;;0.10;0.10;;;17.30;89.90;;;;;;4158620;28;20536;-63
2022/09/24 07:19:09;;;;;;;0.00;0.00;;;17.30;89.70;;;;;;4160021;28;20405;-62
2022/09/24 07:21:50;;;;;;;2.53;2.00;;;17.30;89.60;;;;;;4143808;28;20065;-62
2022/09/24 07:24:31;;;;;;;0.38;0.38;;;17.30;89.60;;;;;;4147225;28;20078;-62
2022/09/24 07:27:14;;;;;;;9.93;1.98;;;17.30;89.40;;;;;;4159762;28;20824;-62
2022/09/24 07:29:55;;;;;;;0.00;0.00;;;17.30;90.10;;;;;;4157728;28;20053;-62
2022/09/24 07:32:37;;;;;;;0.00;0.00;;;17.30;89.30;;;;;;4158558;28;20056;-61
2022/09/24 07:35:19;;;;;;;1.27;1.27;;;17.30;89.30;;;;;;4151936;28;20056;-62
2022/09/24 07:38:01;;;;;;;0.00;0.00;;;17.30;89.30;;;;;;4158145;28;20107;-59
2022/09/24 07:40:43;;;;;;;0.00;0.00;;;17.30;89.30;;;;;;4158481;28;20080;-59
2022/09/24 07:43:27;;;;;;;0.00;0.00;;;17.30;89.60;;;;;;4159392;28;20150;-59
2022/09/24 07:46:08;;;;;;;0.10;0.10;;;17.30;90.20;;;;;;4159091;28;20195;-59
2022/09/24 07:48:53;;;;;;;0.00;0.00;;;17.30;90.00;;;;;;4154013;28;20064;-59
2022/09/24 07:51:34;;;;;;;0.00;0.00;;;17.20;90.00;;;;;;4159685;28;20561;-59
2022/09/24 07:54:15;;;;;;;;;;;17.20;90.10;;;;;;4159939;28;20361;-59
2022/09/24 07:56:56;;;;;;;;;;;17.20;90.20;;;;;;4159783;28;19932;-59
2022/09/24 07:59:39;;;;;;;0.00;0.00;;;17.20;90.20;;;;;;4159060;28;19931;-59
2022/09/24 08:02:20;;;;;;;0.00;0.00;;;17.20;90.60;;;;;;4147361;28;20176;-60
2022/09/24 08:05:01;;;;;;;0.00;0.00;;;17.20;90.20;;;;;;4146538;28;20044;-59
2022/09/24 08:07:42;;;;;;;;;;;17.10;90.20;;;;;;4146538;28;20123;-59
2022/09/24 08:10:24;;;;;;;0.00;0.00;;;17.10;90.30;;;;;;4147076;28;19932;-59
2022/09/24 08:13:05;;;;;;;0.10;0.10;;;17.10;90.30;;;;;;4141645;28;20497;-59
2022/09/24 08:15:47;;;;;;;0.00;0.00;;;17.10;90.40;;;;;;4151350;28;20056;-59
2022/09/24 08:18:30;;;;;;;0.00;0.00;;;17.10;90.40;;;;;;4143110;28;20465;-59
2022/09/24 08:21:14;;;;;;;0.00;0.00;;;17.10;90.50;;;;;;4156369;28;20051;-58
2022/09/24 08:23:55;;;;;;;0.00;0.00;;;17.10;90.50;;;;;;4159214;28;20071;-59
2022/09/24 08:26:35;;;;;;;0.30;0.30;;;17.10;90.50;;;;;;4158190;28;20183;-59
2022/09/24 08:29:17;;;;;;;0.00;0.00;;;17.10;90.50;;;;;;4159094;28;20053;-59
2022/09/24 08:31:59;;;;;;;0.00;0.00;;;17.10;90.60;;;;;;4158174;28;20051;-59
2022/09/24 08:34:40;;;;;;;0.00;0.00;;;17.10;90.60;;;;;;4157275;28;20079;-59
2022/09/24 08:37:21;;;;;;;0.00;0.00;;;17.10;90.50;;;;;;4152197;28;20244;-62
2022/09/24 08:40:02;;;;;;;0.00;0.00;;;17.10;91.00;;;;;;4158946;28;20045;-62
2022/09/24 08:42:49;;;;;;;0.20;0.20;;;17.10;90.60;;;;;;4158714;28;20052;-62
2022/09/24 08:48:44;;;;;;;0.00;0.00;;;17.10;90.60;;;;;;4152448;28;20065;-59
2022/09/24 08:51:27;;;;;;;0.00;0.00;;;17.10;90.50;;;;;;4157777;28;20414;-59
2022/09/24 08:54:15;;;;;;;0.00;0.00;;;17.10;90.40;;;;;;4158968;28;20052;-59
2022/09/24 08:56:56;;;;;;;0.10;0.10;;;17.10;90.50;;;;;;4145990;28;20119;-59
2022/09/24 08:59:37;;;;;;;;;;;17.10;90.50;;;;;;4158829;28;20556;-60
2022/09/24 09:02:36;;;;;;;0.00;0.00;;;17.20;90.70;;;;;;4158030;28;19928;-64
2022/09/24 09:05:27;;;;;;;0.00;0.00;;;17.20;90.50;;;;;;4157213;28;20059;-64
2022/09/24 09:08:13;;;;;;;0.00;0.00;;;17.20;90.60;;;;;;4158728;28;20119;-64
2022/09/24 09:11:18;;;;;;;0.00;0.00;;;17.10;90.50;;;;;;4150830;28;20051;-64
2022/09/24 09:14:04;;;;;;;0.00;0.00;;;17.10;90.50;;;;;;4159620;28;20057;-64
2022/09/24 09:16:52;;;;;;;0.00;0.00;;;17.10;90.50;;;;;;4146013;28;20144;-65
2022/09/24 09:19:34;;;;;;;0.00;0.00;;;17.10;90.50;;;;;;4162028;28;20076;-64
2022/09/24 09:22:22;;;;;;;0.17;0.17;;;17.10;90.60;;;;;;4161196;28;20053;-66
2022/09/24 09:25:13;;;;;;;0.00;0.00;;;17.10;90.60;;;;;;4161716;28;20056;-64
2022/09/24 09:28:01;;;;;;;0.70;0.70;;;17.10;91.00;;;;;;4161669;28;20066;-64
2022/09/24 09:30:52;;;;;;;0.00;0.00;;;17.10;90.60;;;;;;4162089;28;20126;-64
2022/09/24 09:33:45;;;;;;;0.00;0.00;;;17.10;91.00;;;;;;4147088;28;20063;-62
2022/09/24 09:36:39;;;;;;;0.00;0.00;;;17.10;90.60;;;;;;4161603;28;20065;-64
2022/09/24 09:39:31;;;;;;;0.10;0.10;;;17.10;90.60;;;;;;4161175;28;20053;-64
2022/09/24 09:42:28;;;;;;;0.00;0.00;;;17.10;90.60;;;;;;4161867;28;20151;-64
2022/09/24 09:45:23;;;;;;;0.00;0.00;;;17.10;90.60;;;;;;4160147;28;20142;-64
2022/09/24 09:48:11;;;;;;;0.00;0.00;;;17.10;90.50;;;;;;4144623;28;20501;-64
2022/09/24 09:50:59;;;;;;;0.00;0.00;;;17.10;90.50;;;;;;4158026;28;20060;-64
2022/09/24 09:53:40;;;;;;;0.00;0.00;;;17.10;90.50;;;;;;4160476;28;20374;-65
2022/09/24 09:56:25;;;;;;;0.00;0.00;;;17.10;90.90;;;;;;4161642;28;20052;-64
2022/09/24 09:59:16;;;;;;;0.00;0.00;;;17.10;90.40;;;;;;4161590;28;20052;-64
2022/09/24 10:01:57;;;;;;;0.00;0.00;;;17.10;90.40;;;;;;4158202;28;20048;-64
2022/09/24 10:04:41;;;;;;;0.00;0.00;;;17.10;90.40;;;;;;4155815;28;20071;-65
2022/09/24 10:07:22;;;;;;;0.00;0.00;;;17.10;90.40;;;;;;4160651;28;20072;-64
2022/09/24 10:10:16;;;;;;;0.00;0.00;;;17.10;90.40;;;;;;4161317;28;20060;-64
2022/09/24 10:13:09;;;;;;;0.00;0.00;;;17.10;90.40;;;;;;4144664;28;20041;-64
2022/09/24 10:15:52;;;;;;;0.10;0.10;;;17.10;90.40;;;;;;4154595;28;20051;-64
2022/09/24 10:18:37;;;;;;;0.00;0.00;;;17.10;90.40;;;;;;4160236;28;20188;-65
2022/09/24 10:21:31;;;;;;;0.10;0.10;;;17.10;90.40;;;;;;4144495;28;20060;-64
2022/09/24 10:24:16;;;;;;;0.00;0.00;;;17.10;90.30;;;;;;4144513;28;20176;-64
2022/09/24 10:26:57;;;;;;;0.00;0.00;;;17.10;90.30;;;;;;4144491;28;20119;-64
2022/09/24 10:32:40;;;;;;;3.90;2.13;;;17.10;90.20;;;;;;4155696;28;20410;-64
2022/09/24 10:35:26;;;;;;;0.00;0.00;;;17.10;90.20;;;;;;4160545;28;20059;-64
2022/09/24 10:38:16;;;;;;;0.00;0.00;;;17.10;90.20;;;;;;4160337;28;20048;-64
2022/09/24 10:40:58;;;;;;;0.00;0.00;;;17.10;90.10;;;;;;4146094;28;20048;-64
2022/09/24 10:43:39;;;;;;;0.00;0.00;;;17.10;90.50;;;;;;4160800;28;20184;-64
2022/09/24 10:46:42;;;;;;;0.00;0.00;;;17.10;90.10;;;;;;4160442;28;20052;-65
2022/09/24 10:49:38;;;;;;;0.00;0.00;;;17.10;90.10;;;;;;4159295;28;20067;-64
2022/09/24 10:52:41;;;;;;;0.20;0.20;;;17.10;90.10;;;;;;4160308;28;20060;-63
2022/09/24 10:55:37;;;;;;;0.00;0.00;;;17.10;90.10;;;;;;4160143;28;20061;-63
2022/09/24 10:58:34;;;;;;;0.20;0.20;;;17.10;90.00;;;;;;4158707;28;20052;-65
2022/09/24 11:01:22;;;;;;;0.00;0.00;;;17.10;90.00;;;;;;4144498;28;20407;-65
2022/09/24 11:04:26;;;;;;;0.00;0.00;;;17.10;90.00;;;;;;4144325;28;20060;-58
2022/09/24 11:07:43;;;;;;;0.00;0.00;;;17.10;90.40;;;;;;4152283;28;20409;-60
2022/09/24 11:10:38;;;;;;;0.00;0.00;;;17.10;90.30;;;;;;4160496;28;20065;-61
2022/09/24 11:13:31;;;;;;;0.00;0.00;;;17.20;90.20;;;;;;4158760;28;20235;-60
2022/09/24 11:16:44;;;;;;;0.30;0.30;;;17.20;90.00;;;;;;4159651;28;20107;-61
2022/09/24 11:19:57;;;;;;;0.00;0.00;;;17.20;89.70;;;;;;4159541;28;20112;-60
2022/09/24 11:22:52;;;;;;;0.00;0.00;;;17.20;89.50;;;;;;4159549;28;20052;-60
2022/09/24 11:25:43;;;;;;;0.00;0.00;;;17.20;89.50;;;;;;4157231;28;20191;-61
2022/09/24 11:28:45;;;;;;;0.13;0.13;;;17.20;89.50;;;;;;4159844;28;20060;-60
2022/09/24 11:31:34;;;;;;;0.00;0.00;;;17.20;89.30;;;;;;4143175;28;20064;-60
2022/09/24 11:34:30;;;;;;;0.00;0.00;;;17.20;89.30;;;;;;4153253;28;20159;-60
2022/09/24 11:37:25;;;;;;;0.00;0.00;;;17.20;89.30;;;;;;4141760;28;20073;-65
2022/09/24 11:40:23;;;;;;;0.30;0.30;;;17.20;89.40;;;;;;4154189;28;20122;-64
2022/09/24 11:43:32;;;;;;;0.00;0.00;;;17.20;89.40;;;;;;4159186;28;20064;-64
2022/09/24 11:46:29;;;;;;;0.00;0.00;;;17.10;89.30;;;;;;4158948;28;20794;-63
2022/09/24 11:49:37;;;;;;;0.00;0.00;;;17.10;89.10;;;;;;4157801;28;20056;-63
2022/09/24 11:52:29;;;;;;;0.10;0.10;;;17.20;88.90;;;;;;4157967;28;20052;-64
2022/09/24 11:55:17;;;;;;;0.00;0.00;;;17.10;88.70;;;;;;4158345;28;20398;-65
2022/09/24 11:58:09;;;;;;;0.00;0.00;;;17.20;88.70;;;;;;4159391;28;20393;-60
2022/09/24 12:00:54;;;;;;;0.00;0.00;;;17.10;88.70;;;;;;4143271;28;20052;-59
2022/09/24 12:03:40;;;;;;;0.10;0.10;;;17.10;88.80;;;;;;4157318;28;20051;-60
2022/09/24 12:06:27;;;;;;;0.00;0.00;;;17.10;89.00;;;;;;4158037;28;20112;-60
2022/09/24 12:09:24;;;;;;;0.00;0.00;;;17.10;88.90;;;;;;4158833;28;20544;-60
2022/09/24 12:12:11;;;;;;;0.00;0.00;;;17.10;88.90;;;;;;4156515;28;20064;-60
2022/09/24 12:14:57;;;;;;;0.00;0.00;;;17.10;88.70;;;;;;4159088;28;20104;-60
2022/09/24 12:17:44;;;;;;;0.00;0.00;;;17.10;88.70;;;;;;4158859;28;20516;-60
2022/09/24 12:20:27;;;;;;;0.00;0.00;;;17.10;88.80;;;;;;4142053;28;20088;-60
2022/09/24 12:23:13;;;;;;;0.00;0.00;;;17.10;89.00;;;;;;4142714;28;20053;-60
2022/09/24 12:25:57;;;;;;;0.00;0.00;;;17.10;89.00;;;;;;4142646;28;20049;-60
2022/09/24 12:35:00;;;;;;;0.00;0.00;;;17.10;89.00;;;;;;4158914;28;20382;-65
2022/09/24 12:37:45;;;;;;;0.00;0.00;;;17.10;89.10;;;;;;4158889;28;20124;-65
2022/09/24 12:40:46;;;;;;;0.00;0.00;;;17.10;89.10;;;;;;4144515;28;20060;-60
2022/09/24 12:43:34;;;;;;;0.20;0.20;;;17.10;89.20;;;;;;4147185;28;20061;-60
2022/09/24 12:46:19;;;;;;;0.00;0.00;;;17.10;89.30;;;;;;4158713;28;20825;-60
2022/09/24 12:49:01;;;;;;;0.00;0.00;;;17.10;89.40;;;;;;4141905;28;20061;-60
2022/09/24 12:51:42;;;;;;;0.00;0.00;;;17.10;90.10;;;;;;4142306;28;20072;-59
2022/09/24 12:54:27;;;;;;;0.00;0.00;;;17.10;89.40;;;;;;4129269;28;20057;-60
2022/09/24 12:57:13;;;;;;;0.00;0.00;;;17.10;89.40;;;;;;4145012;28;20080;-61
2022/09/24 12:59:57;;;;;;;0.00;0.00;;;17.10;89.40;;;;;;4158623;28;20064;-60
2022/09/24 13:02:45;;;;;;;3.83;1.50;;;17.10;89.50;;;;;;4158063;28;20496;-60
2022/09/24 13:05:29;;;;;;;0.00;0.00;;;17.10;89.40;;;;;;4157504;28;20056;-66
2022/09/24 13:08:25;;;;;;;0.32;0.32;;;17.10;89.40;;;;;;4157954;28;20083;-64
2022/09/24 13:11:28;;;;;;;0.00;0.00;;;17.10;89.40;;;;;;4157705;28;20073;-65
2022/09/24 13:14:21;;;;;;;0.00;0.00;;;17.10;89.50;;;;;;4141634;28;20115;-66
2022/09/24 13:17:07;;;;;;;0.00;0.00;;;17.10;89.50;;;;;;4157100;28;20633;-63
2022/09/24 13:19:55;;;;;;;0.00;0.00;;;17.10;89.40;;;;;;4157941;28;20061;-65
2022/09/24 13:22:37;;;;;;;0.00;0.00;;;17.10;89.40;;;;;;4158554;28;20048;-60
2022/09/24 13:25:22;;;;;;;0.00;0.00;;;17.00;89.30;;;;;;4158056;28;20138;-60
2022/09/24 13:28:20;;;;;;;29.35;1.45;;;17.00;89.40;;;;;;4158105;28;20123;-59
2022/09/24 13:31:11;;;;;;;0.00;0.00;;;17.00;89.40;;;;;;4157430;28;20476;-59
2022/09/24 13:33:55;;;;;;;;;;;17.00;89.50;;;;;;4156903;28;20425;-61
2022/09/24 13:36:44;;;;;;;0.00;0.00;;;17.00;89.40;;;;;;4158010;28;19951;-60
2022/09/24 13:39:31;;;;;;;0.00;0.00;;;17.00;89.50;;;;;;4156686;28;20052;-60
2022/09/24 13:42:19;;;;;;;0.00;0.00;;;17.00;89.50;;;;;;4158168;28;20196;-60
2022/09/24 13:45:02;;;;;;;0.00;0.00;;;17.00;89.60;;;;;;4157502;28;20067;-60
2022/09/24 13:47:49;;;;;;;0.00;0.00;;;17.00;89.70;;;;;;4141818;28;20056;-59
2022/09/24 13:50:36;;;;;;;0.00;0.00;;;17.00;89.70;;;;;;4141673;28;20466;-59
2022/09/24 13:53:29;;;;;;;0.00;0.00;;;17.00;89.70;;;;;;4142016;28;20568;-60
2022/09/24 13:56:14;;;;;;;0.00;0.00;;;17.00;89.70;;;;;;4154415;28;20060;-60
2022/09/24 13:59:05;;;;;;;0.00;0.00;;;17.00;89.70;;;;;;4157508;28;20051;-60
2022/09/24 14:01:46;;;;;;;0.00;0.00;;;17.00;89.80;;;;;;4160552;28;20501;-60
2022/09/24 14:04:27;;;;;;;0.00;0.00;;;17.00;89.80;;;;;;4145048;28;20087;-60
2022/09/24 14:07:09;;;;;;;0.00;0.00;;;16.90;89.70;;;;;;4144658;28;20108;-59
2022/09/24 14:10:01;;;;;;;0.00;0.00;;;17.00;89.90;;;;;;4144084;28;20057;-59
2022/09/24 14:12:42;;;;;;;0.00;0.00;;;17.00;89.90;;;;;;4144581;28;20052;-60
2022/09/24 14:15:22;;;;;;;0.00;0.00;;;17.00;90.00;;;;;;4159026;28;20068;-60
2022/09/24 14:18:03;;;;;;;0.00;0.00;;;17.00;90.00;;;;;;4161091;28;20188;-60
2022/09/24 14:20:55;;;;;;;0.00;0.00;;;16.90;90.00;;;;;;4161205;28;20504;-60
2022/09/24 14:23:41;;;;;;;0.00;0.00;;;16.90;90.00;;;;;;4160752;28;20126;-60
2022/09/24 14:26:30;;;;;;;1.75;1.23;;;17.00;90.00;;;;;;4160818;28;20701;-60
2022/09/24 14:29:16;;;;;;;0.00;0.00;;;16.90;90.00;;;;;;4161040;28;20056;-60
2022/09/24 14:31:59;;;;;;;0.00;0.00;;;16.90;90.00;;;;;;4160461;28;20057;-64
2022/09/24 14:34:43;;;;;;;0.00;0.00;;;17.00;90.00;;;;;;4160519;28;20056;-60
2022/09/24 14:37:28;;;;;;;0.45;0.45;;;17.00;90.00;;;;;;4160659;28;20056;-60
2022/09/24 14:40:15;;;;;;;0.00;0.00;;;17.00;90.00;;;;;;4159388;28;20067;-60
2022/09/24 14:42:59;;;;;;;0.00;0.00;;;17.00;90.00;;;;;;4160204;28;20131;-64
2022/09/24 14:45:40;;;;;;;0.00;0.00;;;17.00;89.90;;;;;;4160360;28;20068;-65